createdAt,value
2018-09-25T00:00:35.007Z,8.11
2018-09-25T00:01:34.910Z,8.25
2018-09-25T00:02:34.918Z,8.18
2018-09-25T00:03:34.859Z,8.21
2018-09-25T00:04:34.922Z,8.28
2018-09-25T00:05:34.808Z,8.36
2018-09-25T00:06:34.779Z,8.45
2018-09-25T00:07:34.840Z,8.40
2018-09-25T00:08:34.719Z,8.48
2018-09-25T00:09:41.957Z,8.54
2018-09-25T00:11:27.737Z,8.65
2018-09-25T00:12:27.628Z,8.58
2018-09-25T00:14:20.588Z,8.68
2018-09-25T00:15:20.479Z,8.68
2018-09-25T00:17:13.469Z,8.57
2018-09-25T00:18:13.439Z,8.65
2018-09-25T00:19:13.529Z,8.68
2018-09-25T00:20:13.378Z,8.65
2018-09-25T00:21:13.438Z,8.62
2018-09-25T00:22:13.449Z,8.63
2018-09-25T00:23:13.312Z,8.58
2018-09-25T00:24:13.363Z,8.54
2018-09-25T00:25:13.254Z,8.57
2018-09-25T00:26:13.380Z,8.51
2018-09-25T00:27:13.208Z,8.54
2018-09-25T00:28:13.176Z,8.51
2018-09-25T00:29:13.292Z,8.40
2018-09-25T00:30:13.108Z,8.37
2018-09-25T00:31:13.213Z,8.48
2018-09-25T00:32:13.062Z,8.42
2018-09-25T00:33:13.038Z,8.40
2018-09-25T00:34:13.016Z,8.45
2018-09-25T00:35:13.139Z,8.39
2018-09-25T00:36:12.952Z,8.40
2018-09-25T00:37:13.042Z,8.39
2018-09-25T00:38:13.057Z,8.36
2018-09-25T00:39:12.878Z,8.33
2018-09-25T00:40:12.959Z,8.37
2018-09-25T00:41:12.819Z,8.36
2018-09-25T00:42:12.872Z,8.39
2018-09-25T00:43:12.776Z,8.37
2018-09-25T00:44:12.888Z,8.33
2018-09-25T00:45:12.714Z,8.32
2018-09-25T00:46:12.799Z,8.30
2018-09-25T00:47:12.722Z,8.26
2018-09-25T00:48:12.713Z,8.33
2018-09-25T00:49:12.602Z,8.29
2018-09-25T00:50:12.736Z,8.28
2018-09-25T00:51:12.554Z,8.33
2018-09-25T00:52:12.641Z,8.26
2018-09-25T00:53:12.500Z,8.22
2018-09-25T00:54:12.469Z,8.28
2018-09-25T00:55:12.442Z,8.36
2018-09-25T00:56:12.562Z,8.33
2018-09-25T00:57:12.390Z,8.33
2018-09-25T00:58:12.469Z,8.22
2018-09-25T00:59:12.339Z,8.32
2018-09-25T01:00:12.491Z,8.35
2018-09-25T01:01:12.279Z,8.44
2018-09-25T01:02:12.398Z,8.40
2018-09-25T01:03:12.230Z,8.44
2018-09-25T01:04:12.235Z,8.48
2018-09-25T01:05:12.168Z,8.44
2018-09-25T01:06:12.328Z,8.50
2018-09-25T01:07:12.118Z,8.37
2018-09-25T01:08:12.239Z,8.50
2018-09-25T01:09:12.071Z,8.42
2018-09-25T01:10:12.038Z,8.47
2018-09-25T01:11:12.158Z,8.44
2018-09-25T01:12:11.988Z,8.48
2018-09-25T01:13:12.072Z,8.44
2018-09-25T01:14:11.935Z,8.39
2018-09-25T01:15:11.902Z,8.45
2018-09-25T01:16:11.881Z,8.44
2018-09-25T01:17:26.538Z,8.44
2018-09-25T01:18:11.822Z,8.47
2018-09-25T01:19:11.950Z,8.36
2018-09-25T01:20:11.768Z,8.35
2018-09-25T01:21:11.747Z,8.37
2018-09-25T01:22:11.831Z,8.37
2018-09-25T01:23:11.695Z,8.36
2018-09-25T01:24:11.837Z,8.35
2018-09-25T01:25:11.638Z,8.33
2018-09-25T01:26:11.618Z,8.36
2018-09-25T01:27:11.757Z,8.29
2018-09-25T01:28:11.558Z,8.33
2018-09-25T01:29:11.668Z,8.26
2018-09-25T01:30:11.501Z,8.30
2018-09-25T01:31:11.468Z,8.30
2018-09-25T01:32:11.453Z,8.35
2018-09-25T01:33:11.598Z,8.35
2018-09-25T01:34:11.396Z,8.32
2018-09-25T01:35:11.514Z,8.37
2018-09-25T01:36:11.342Z,8.35
2018-09-25T01:37:11.517Z,8.32
2018-09-25T01:38:11.292Z,8.26
2018-09-25T01:39:11.431Z,8.28
2018-09-25T01:40:11.231Z,8.30
2018-09-25T01:41:11.240Z,8.28
2018-09-25T01:42:11.248Z,8.30
2018-09-25T01:43:11.157Z,8.32
2018-09-25T01:44:11.158Z,8.28
2018-09-25T01:45:11.099Z,8.30
2018-09-25T01:46:11.177Z,8.32
2018-09-25T01:47:11.079Z,8.29
2018-09-25T01:48:11.020Z,8.22
2018-09-25T01:49:11.197Z,8.29
2018-09-25T01:50:10.960Z,8.32
2018-09-25T01:51:11.009Z,8.42
2018-09-25T01:52:10.907Z,8.36
2018-09-25T01:53:10.922Z,8.39
2018-09-25T01:54:10.858Z,8.44
2018-09-25T01:55:10.928Z,8.48
2018-09-25T01:56:10.799Z,8.47
2018-09-25T01:57:10.834Z,8.51
2018-09-25T01:58:10.749Z,8.50
2018-09-25T01:59:10.775Z,8.53
2018-09-25T02:00:10.707Z,8.53
2018-09-25T02:01:10.770Z,8.54
2018-09-25T02:02:10.642Z,8.57
2018-09-25T02:03:10.608Z,8.58
2018-09-25T02:04:10.591Z,8.57
2018-09-25T02:05:10.707Z,8.62
2018-09-25T02:06:10.532Z,8.63
2018-09-25T02:07:10.618Z,8.55
2018-09-25T02:08:10.485Z,8.45
2018-09-25T02:09:10.521Z,8.50
2018-09-25T02:10:10.432Z,8.48
2018-09-25T02:11:10.529Z,8.53
2018-09-25T02:12:10.379Z,8.37
2018-09-25T02:13:10.408Z,8.48
2018-09-25T02:14:10.321Z,8.51
2018-09-25T02:15:10.366Z,8.51
2018-09-25T02:16:10.260Z,8.48
2018-09-25T02:17:10.368Z,8.50
2018-09-25T02:18:10.212Z,8.53
2018-09-25T02:19:10.195Z,8.54
2018-09-25T02:20:10.160Z,8.50
2018-09-25T02:21:10.186Z,8.53
2018-09-25T02:22:10.107Z,8.50
2018-09-25T02:23:10.218Z,8.53
2018-09-25T02:24:10.107Z,8.47
2018-09-25T02:25:10.031Z,8.50
2018-09-25T02:26:10.138Z,8.48
2018-09-25T02:27:09.977Z,8.42
2018-09-25T02:28:10.057Z,8.45
2018-09-25T02:29:09.917Z,8.45
2018-09-25T02:30:09.897Z,8.35
2018-09-25T02:31:09.956Z,8.26
2018-09-25T02:32:09.838Z,8.22
2018-09-25T02:33:09.966Z,8.15
2018-09-25T02:34:09.789Z,8.15
2018-09-25T02:35:09.752Z,8.12
2018-09-25T02:36:09.896Z,8.11
2018-09-25T02:37:09.708Z,8.17
2018-09-25T02:38:09.798Z,8.17
2018-09-25T02:39:09.652Z,8.03
2018-09-25T02:40:09.620Z,8.14
2018-09-25T02:41:09.731Z,7.96
2018-09-25T02:42:09.567Z,8.03
2018-09-25T02:43:09.639Z,7.99
2018-09-25T02:44:09.512Z,7.89
2018-09-25T02:45:09.487Z,7.89
2018-09-25T02:46:09.468Z,7.89
2018-09-25T02:47:09.568Z,7.82
2018-09-25T02:48:09.408Z,7.75
2018-09-25T02:49:09.473Z,7.72
2018-09-25T02:50:09.355Z,7.72
2018-09-25T02:51:09.328Z,7.78
2018-09-25T02:52:09.400Z,7.60
2018-09-25T02:53:09.267Z,7.69
2018-09-25T02:54:09.422Z,7.60
2018-09-25T02:55:09.227Z,7.52
2018-09-25T02:56:09.186Z,7.55
2018-09-25T02:57:09.171Z,7.52
2018-09-25T02:58:09.231Z,7.52
2018-09-25T02:59:09.117Z,7.56
2018-09-25T03:00:09.251Z,7.58
2018-09-25T03:01:09.057Z,7.56
2018-09-25T03:02:09.149Z,7.53
2018-09-25T03:03:09.010Z,7.49
2018-09-25T03:04:09.073Z,7.47
2018-09-25T03:05:08.947Z,7.45
2018-09-25T03:06:09.080Z,7.41
2018-09-25T03:07:08.901Z,7.37
2018-09-25T03:08:08.996Z,7.38
2018-09-25T03:09:08.837Z,7.34
2018-09-25T03:10:09.011Z,7.29
2018-09-25T03:11:08.792Z,7.32
2018-09-25T03:12:08.775Z,7.24
2018-09-25T03:13:08.928Z,7.16
2018-09-25T03:14:08.707Z,7.17
2018-09-25T03:15:08.846Z,7.12
2018-09-25T03:16:08.648Z,7.19
2018-09-25T03:17:08.627Z,7.13
2018-09-25T03:18:08.602Z,7.07
2018-09-25T03:19:08.774Z,7.09
2018-09-25T03:20:08.540Z,7.07
2018-09-25T03:21:08.672Z,7.16
2018-09-25T03:22:08.496Z,7.20
2018-09-25T03:23:08.607Z,7.23
2018-09-25T03:24:08.438Z,7.26
2018-09-25T03:25:08.617Z,7.20
2018-09-25T03:26:08.381Z,7.19
2018-09-25T03:27:08.517Z,7.24
2018-09-25T03:28:08.521Z,7.31
2018-09-25T03:29:08.307Z,7.19
2018-09-25T03:30:08.429Z,7.24
2018-09-25T03:31:08.247Z,7.17
2018-09-25T03:32:08.337Z,7.20
2018-09-25T03:33:08.346Z,7.16
2018-09-25T03:34:08.167Z,7.08
2018-09-25T03:35:08.257Z,7.09
2018-09-25T03:36:08.113Z,7.17
2018-09-25T03:37:08.274Z,7.15
2018-09-25T03:38:08.056Z,7.07
2018-09-25T03:39:08.187Z,7.15
2018-09-25T03:40:08.002Z,7.08
2018-09-25T03:41:08.102Z,7.04
2018-09-25T03:42:07.939Z,7.07
2018-09-25T03:43:08.111Z,7.02
2018-09-25T03:44:07.887Z,6.99
2018-09-25T03:45:08.017Z,6.89
2018-09-25T03:46:07.832Z,6.84
2018-09-25T03:47:07.941Z,6.86
2018-09-25T03:48:07.783Z,6.84
2018-09-25T03:49:07.748Z,6.83
2018-09-25T03:50:07.747Z,6.86
2018-09-25T03:51:07.703Z,6.91
2018-09-25T03:52:07.768Z,6.86
2018-09-25T03:53:07.651Z,6.89
2018-09-25T03:54:07.611Z,6.76
2018-09-25T03:55:07.589Z,6.80
2018-09-25T03:56:07.596Z,6.73
2018-09-25T03:57:07.531Z,6.81
2018-09-25T03:58:07.607Z,6.77
2018-09-25T03:59:07.481Z,6.76
2018-09-25T04:00:07.446Z,6.77
2018-09-25T04:01:07.517Z,6.72
2018-09-25T04:02:07.392Z,6.76
2018-09-25T04:03:07.429Z,6.76
2018-09-25T04:04:07.338Z,6.77
2018-09-25T04:05:07.317Z,6.72
2018-09-25T04:06:07.415Z,6.66
2018-09-25T04:07:07.262Z,6.72
2018-09-25T04:08:07.261Z,6.68
2018-09-25T04:09:07.203Z,6.68
2018-09-25T04:10:07.171Z,6.69
2018-09-25T04:11:07.150Z,6.71
2018-09-25T04:12:07.189Z,6.69
2018-09-25T04:13:07.091Z,6.68
2018-09-25T04:14:07.102Z,6.68
2018-09-25T04:15:07.031Z,6.59
2018-09-25T04:16:07.121Z,6.58
2018-09-25T04:17:06.985Z,6.61
2018-09-25T04:18:07.032Z,6.65
2018-09-25T04:19:06.924Z,6.58
2018-09-25T04:20:07.043Z,6.65
2018-09-25T04:21:06.953Z,6.58
2018-09-25T04:22:06.846Z,6.56
2018-09-25T04:23:06.977Z,6.59
2018-09-25T04:24:06.788Z,6.61
2018-09-25T04:25:06.889Z,6.59
2018-09-25T04:26:06.888Z,6.58
2018-09-25T04:27:06.707Z,6.56
2018-09-25T04:28:06.798Z,6.56
2018-09-25T04:29:06.651Z,6.61
2018-09-25T04:30:06.713Z,6.53
2018-09-25T04:31:06.592Z,6.61
2018-09-25T04:32:06.568Z,6.53
2018-09-25T04:33:06.630Z,6.53
2018-09-25T04:34:06.517Z,6.56
2018-09-25T04:35:06.641Z,6.58
2018-09-25T04:36:06.463Z,6.62
2018-09-25T04:37:06.458Z,6.68
2018-09-25T04:38:06.558Z,6.69
2018-09-25T04:39:06.372Z,6.71
2018-09-25T04:40:06.467Z,6.79
2018-09-25T04:41:06.321Z,6.76
2018-09-25T04:42:06.294Z,6.73
2018-09-25T04:43:06.268Z,6.77
2018-09-25T04:44:06.388Z,6.84
2018-09-25T04:45:06.207Z,6.77
2018-09-25T04:46:06.309Z,6.73
2018-09-25T04:47:06.180Z,6.72
2018-09-25T04:48:06.221Z,6.84
2018-09-25T04:49:06.097Z,6.72
2018-09-25T04:50:06.231Z,6.73
2018-09-25T04:51:06.042Z,6.72
2018-09-25T04:52:06.141Z,6.77
2018-09-25T04:53:05.983Z,6.80
2018-09-25T04:54:06.062Z,6.71
2018-09-25T04:55:05.936Z,6.79
2018-09-25T04:56:06.067Z,6.77
2018-09-25T04:57:05.969Z,6.76
2018-09-25T04:58:05.838Z,6.76
2018-09-25T04:59:05.820Z,6.71
2018-09-25T05:00:05.890Z,6.76
2018-09-25T05:01:05.758Z,6.68
2018-09-25T05:02:05.908Z,6.66
2018-09-25T05:03:05.811Z,6.62
2018-09-25T05:04:05.679Z,6.58
2018-09-25T05:05:05.821Z,6.59
2018-09-25T05:06:05.617Z,6.58
2018-09-25T05:07:05.737Z,6.58
2018-09-25T05:08:05.572Z,6.61
2018-09-25T05:09:05.541Z,6.61
2018-09-25T05:10:05.657Z,6.56
2018-09-25T05:11:05.478Z,6.47
2018-09-25T05:12:05.599Z,6.51
2018-09-25T05:13:05.431Z,6.47
2018-09-25T05:14:05.402Z,6.44
2018-09-25T05:15:05.492Z,6.44
2018-09-25T05:16:05.347Z,6.43
2018-09-25T05:17:05.498Z,6.44
2018-09-25T05:18:05.322Z,6.43
2018-09-25T05:19:05.258Z,6.41
2018-09-25T05:20:05.231Z,6.38
2018-09-25T05:21:05.317Z,6.44
2018-09-25T05:22:05.183Z,6.47
2018-09-25T05:23:05.341Z,6.44
2018-09-25T05:24:05.123Z,6.43
2018-09-25T05:25:05.246Z,6.33
2018-09-25T05:26:05.061Z,6.38
2018-09-25T05:27:05.161Z,6.43
2018-09-25T05:28:05.007Z,6.47
2018-09-25T05:29:05.177Z,6.40
2018-09-25T05:30:04.950Z,6.43
2018-09-25T05:31:04.981Z,6.43
2018-09-25T05:32:04.900Z,6.43
2018-09-25T05:33:05.001Z,6.36
2018-09-25T05:34:04.847Z,6.40
2018-09-25T05:35:04.813Z,6.41
2018-09-25T05:36:04.797Z,6.43
2018-09-25T05:37:04.924Z,6.36
2018-09-25T05:38:04.732Z,6.43
2018-09-25T05:39:04.842Z,6.44
2018-09-25T05:40:04.838Z,6.38
2018-09-25T05:41:04.712Z,6.48
2018-09-25T05:42:04.757Z,6.47
2018-09-25T05:43:04.586Z,6.50
2018-09-25T05:44:04.771Z,6.61
2018-09-25T05:45:04.530Z,6.48
2018-09-25T05:46:04.681Z,6.59
2018-09-25T05:47:04.477Z,6.56
2018-09-25T05:48:04.627Z,6.58
2018-09-25T05:49:04.451Z,6.54
2018-09-25T05:50:04.611Z,6.62
2018-09-25T05:51:04.365Z,6.59
2018-09-25T05:52:04.517Z,6.61
2018-09-25T05:53:04.311Z,6.59
2018-09-25T05:54:04.430Z,6.62
2018-09-25T05:55:04.260Z,6.62
2018-09-25T05:56:04.229Z,6.61
2018-09-25T05:57:04.201Z,6.56
2018-09-25T05:58:04.248Z,6.58
2018-09-25T05:59:04.146Z,6.53
2018-09-25T06:00:04.167Z,6.61
2018-09-25T06:01:04.158Z,6.59
2018-09-25T06:02:04.178Z,6.58
2018-09-25T06:03:04.030Z,6.61
2018-09-25T06:04:04.089Z,6.72
2018-09-25T06:05:03.981Z,6.69
2018-09-25T06:06:03.998Z,6.63
2018-09-25T06:07:03.928Z,6.73
2018-09-25T06:08:04.017Z,6.65
2018-09-25T06:09:03.868Z,6.58
2018-09-25T06:10:11.091Z,6.59
2018-09-25T06:11:56.707Z,6.66
2018-09-25T06:12:56.661Z,6.66
2018-09-25T06:14:49.616Z,6.65
2018-09-25T06:15:49.568Z,6.68
2018-09-25T06:17:42.458Z,6.76
2018-09-25T06:18:42.378Z,6.72
2018-09-25T06:20:35.411Z,6.73
2018-09-25T06:21:35.211Z,6.81
2018-09-25T06:23:28.158Z,6.87
2018-09-25T06:24:28.067Z,6.86
2018-09-25T06:26:21.012Z,6.86
2018-09-25T06:27:20.919Z,6.91
2018-09-25T06:28:20.890Z,6.91
2018-09-25T06:29:20.911Z,6.94
2018-09-25T06:30:20.831Z,6.97
2018-09-25T06:31:20.918Z,6.99
2018-09-25T06:32:20.777Z,6.95
2018-09-25T06:33:20.752Z,6.95
2018-09-25T06:34:20.720Z,7.12
2018-09-25T06:35:20.738Z,7.02
2018-09-25T06:36:20.671Z,7.08
2018-09-25T06:37:20.688Z,7.19
2018-09-25T06:38:20.613Z,7.23
2018-09-25T06:39:20.657Z,7.22
2018-09-25T06:40:20.557Z,7.23
2018-09-25T06:41:20.568Z,7.22
2018-09-25T06:42:20.506Z,7.38
2018-09-25T06:43:20.581Z,7.38
2018-09-25T06:44:20.438Z,7.38
2018-09-25T06:45:20.487Z,7.42
2018-09-25T06:46:20.447Z,7.44
2018-09-25T06:47:20.431Z,7.44
2018-09-25T06:48:20.343Z,7.42
2018-09-25T06:49:20.291Z,7.41
2018-09-25T06:50:20.280Z,7.53
2018-09-25T06:51:20.338Z,7.47
2018-09-25T06:52:20.225Z,7.47
2018-09-25T06:53:20.244Z,7.53
2018-09-25T06:54:20.242Z,7.50
2018-09-25T06:55:20.224Z,7.52
2018-09-25T06:56:20.148Z,7.55
2018-09-25T06:57:20.109Z,7.60
2018-09-25T06:58:20.177Z,7.63
2018-09-25T06:59:20.032Z,7.69
2018-09-25T07:00:19.998Z,7.77
2018-09-25T07:01:20.081Z,7.77
2018-09-25T07:02:19.949Z,7.78
2018-09-25T07:03:19.990Z,7.93
2018-09-25T07:04:19.900Z,8.00
2018-09-25T07:05:19.871Z,8.04
2018-09-25T07:06:19.837Z,8.10
2018-09-25T07:07:19.921Z,8.04
2018-09-25T07:08:19.787Z,8.10
2018-09-25T07:09:19.831Z,8.14
2018-09-25T07:10:19.984Z,8.11
2018-09-25T07:11:19.697Z,8.17
2018-09-25T07:12:19.741Z,8.20
2018-09-25T07:13:19.638Z,8.20
2018-09-25T07:14:19.652Z,8.22
2018-09-25T07:15:19.587Z,8.22
2018-09-25T07:16:19.657Z,8.26
2018-09-25T07:17:19.538Z,8.26
2018-09-25T07:18:19.578Z,8.26
2018-09-25T07:19:19.478Z,8.33
2018-09-25T07:20:19.496Z,8.37
2018-09-25T07:21:19.490Z,8.48
2018-09-25T07:22:19.406Z,8.39
2018-09-25T07:23:19.403Z,8.50
2018-09-25T07:24:19.348Z,8.51
2018-09-25T07:25:19.411Z,8.54
2018-09-25T07:26:19.292Z,8.58
2018-09-25T07:27:19.328Z,8.69
2018-09-25T07:28:19.254Z,8.71
2018-09-25T07:29:19.337Z,8.71
2018-09-25T07:30:19.178Z,8.78
2018-09-25T07:31:19.161Z,8.71
2018-09-25T07:32:19.136Z,8.78
2018-09-25T07:33:19.259Z,8.81
2018-09-25T07:34:19.076Z,8.86
2018-09-25T07:35:19.171Z,8.86
2018-09-25T07:36:19.017Z,8.81
2018-09-25T07:37:19.193Z,8.87
2018-09-25T07:38:18.968Z,8.94
2018-09-25T07:39:19.006Z,8.91
2018-09-25T07:40:18.909Z,8.96
2018-09-25T07:41:18.920Z,9.01
2018-09-25T07:42:18.864Z,9.05
2018-09-25T07:43:18.916Z,9.06
2018-09-25T07:44:18.807Z,9.12
2018-09-25T07:45:18.826Z,9.15
2018-09-25T07:46:18.747Z,9.16
2018-09-25T07:47:18.728Z,9.18
2018-09-25T07:48:18.722Z,9.24
2018-09-25T07:49:18.763Z,9.32
2018-09-25T07:50:18.647Z,9.25
2018-09-25T07:51:18.679Z,9.38
2018-09-25T07:52:18.592Z,9.28
2018-09-25T07:53:18.688Z,9.49
2018-09-25T07:54:18.536Z,9.53
2018-09-25T07:55:18.601Z,9.50
2018-09-25T07:56:18.486Z,9.60
2018-09-25T07:57:18.511Z,9.61
2018-09-25T07:58:18.524Z,9.60
2018-09-25T07:59:18.418Z,9.63
2018-09-25T08:00:18.430Z,9.78
2018-09-25T08:01:18.349Z,9.75
2018-09-25T08:02:18.436Z,9.81
2018-09-25T08:03:18.439Z,9.71
2018-09-25T08:04:18.279Z,9.86
2018-09-25T08:05:18.355Z,10.01
2018-09-25T08:06:18.220Z,10.09
2018-09-25T08:07:18.272Z,10.04
2018-09-25T08:08:18.277Z,10.04
2018-09-25T08:09:18.137Z,10.09
2018-09-25T08:10:18.192Z,10.19
2018-09-25T08:11:18.096Z,10.22
2018-09-25T08:12:18.210Z,10.24
2018-09-25T08:13:18.035Z,10.33
2018-09-25T08:14:18.121Z,10.36
2018-09-25T08:15:18.002Z,10.32
2018-09-25T08:16:18.032Z,10.39
2018-09-25T08:17:17.933Z,10.36
2018-09-25T08:18:18.042Z,10.44
2018-09-25T08:19:17.887Z,10.39
2018-09-25T08:20:17.958Z,10.39
2018-09-25T08:21:17.837Z,10.42
2018-09-25T08:22:17.882Z,10.56
2018-09-25T08:23:17.777Z,10.59
2018-09-25T08:24:17.757Z,10.71
2018-09-25T08:25:17.717Z,10.68
2018-09-25T08:26:17.787Z,10.73
2018-09-25T08:27:17.661Z,10.77
2018-09-25T08:28:17.807Z,10.80
2018-09-25T08:29:17.711Z,10.77
2018-09-25T08:30:17.597Z,10.89
2018-09-25T08:31:17.726Z,10.81
2018-09-25T08:32:17.555Z,10.92
2018-09-25T08:33:17.641Z,10.95
2018-09-25T08:34:17.490Z,11.03
2018-09-25T08:35:17.478Z,10.99
2018-09-25T08:36:17.556Z,11.09
2018-09-25T08:37:17.416Z,11.07
2018-09-25T08:38:17.468Z,11.10
2018-09-25T08:39:17.458Z,11.09
2018-09-25T08:40:17.340Z,11.11
2018-09-25T08:41:17.390Z,11.14
2018-09-25T08:42:17.286Z,11.20
2018-09-25T08:43:17.301Z,11.27
2018-09-25T08:44:17.244Z,11.21
2018-09-25T08:45:17.210Z,11.27
2018-09-25T08:46:17.190Z,11.27
2018-09-25T08:47:17.276Z,11.38
2018-09-25T08:48:17.126Z,11.41
2018-09-25T08:49:17.186Z,11.44
2018-09-25T08:50:17.177Z,11.54
2018-09-25T08:51:17.066Z,11.56
2018-09-25T08:52:17.088Z,11.62
2018-09-25T08:53:17.016Z,11.67
2018-09-25T08:54:17.001Z,11.61
2018-09-25T08:55:16.963Z,11.83
2018-09-25T08:56:17.008Z,11.89
2018-09-25T08:57:16.906Z,11.97
2018-09-25T08:58:16.921Z,12.13
2018-09-25T08:59:16.866Z,12.26
2018-09-25T09:00:16.933Z,12.41
2018-09-25T09:01:16.811Z,12.41
2018-09-25T09:02:16.848Z,12.48
2018-09-25T09:03:16.763Z,12.62
2018-09-25T09:04:16.756Z,12.70
2018-09-25T09:05:16.706Z,13.00
2018-09-25T09:06:16.683Z,13.11
2018-09-25T09:07:16.660Z,13.41
2018-09-25T09:08:16.725Z,13.65
2018-09-25T09:09:16.606Z,14.27
2018-09-25T09:10:16.690Z,14.86
2018-09-25T09:11:16.603Z,15.49
2018-09-25T09:12:16.531Z,16.18
2018-09-25T09:13:16.689Z,17.07
2018-09-25T09:14:16.491Z,17.63
2018-09-25T09:15:16.597Z,18.22
2018-09-25T09:16:16.435Z,18.72
2018-09-25T09:17:16.516Z,19.18
2018-09-25T09:18:16.390Z,19.53
2018-09-25T09:19:16.525Z,20.08
2018-09-25T09:20:16.418Z,20.51
2018-09-25T09:21:16.344Z,20.64
2018-09-25T09:22:16.293Z,20.87
2018-09-25T09:23:16.455Z,21.35
2018-09-25T09:24:16.245Z,21.71
2018-09-25T09:25:16.490Z,22.04
2018-09-25T09:26:16.196Z,22.44
2018-09-25T09:27:16.177Z,22.68
2018-09-25T09:28:16.292Z,22.93
2018-09-25T09:29:16.127Z,23.07
2018-09-25T09:30:16.200Z,23.39
2018-09-25T09:31:16.089Z,23.62
2018-09-25T09:32:16.069Z,23.82
2018-09-25T09:33:16.037Z,23.79
2018-09-25T09:34:16.119Z,23.94
2018-09-25T09:35:16.005Z,24.02
2018-09-25T09:36:16.034Z,24.29
2018-09-25T09:37:15.956Z,24.38
2018-09-25T09:38:16.049Z,24.44
2018-09-25T09:39:15.926Z,24.61
2018-09-25T09:40:15.962Z,24.88
2018-09-25T09:41:15.972Z,25.01
2018-09-25T09:42:15.877Z,25.10
2018-09-25T09:43:15.835Z,25.30
2018-09-25T09:44:15.889Z,25.42
2018-09-25T09:45:15.795Z,25.50
2018-09-25T09:46:15.840Z,25.67
2018-09-25T09:47:15.759Z,25.93
2018-09-25T09:48:15.740Z,25.97
2018-09-25T09:49:15.828Z,26.08
2018-09-25T09:50:15.736Z,26.22
2018-09-25T09:51:15.732Z,26.31
2018-09-25T09:52:15.675Z,26.43
2018-09-25T09:53:15.645Z,26.54
2018-09-25T09:54:15.655Z,26.59
2018-09-25T09:55:15.606Z,26.76
2018-09-25T09:56:15.719Z,26.11
2018-09-25T09:57:15.579Z,24.69
2018-09-25T09:58:15.558Z,23.60
2018-09-25T09:59:15.545Z,22.67
2018-09-25T10:00:15.592Z,21.94
2018-09-25T10:01:15.505Z,21.32
2018-09-25T10:02:15.502Z,21.01
2018-09-25T10:03:15.514Z,20.76
2018-09-25T10:04:15.450Z,20.56
2018-09-25T10:05:15.519Z,20.27
2018-09-25T10:06:15.408Z,19.91
2018-09-25T10:07:15.492Z,19.54
2018-09-25T10:08:15.376Z,19.33
2018-09-25T10:09:15.450Z,19.11
2018-09-25T10:10:15.339Z,19.02
2018-09-25T10:11:15.360Z,19.38
2018-09-25T10:12:15.315Z,20.10
2018-09-25T10:13:15.381Z,21.05
2018-09-25T10:14:15.267Z,21.74
2018-09-25T10:15:15.287Z,22.10
2018-09-25T10:16:15.227Z,21.94
2018-09-25T10:17:15.297Z,21.51
2018-09-25T10:18:15.192Z,21.30
2018-09-25T10:19:15.157Z,20.79
2018-09-25T10:20:15.217Z,20.43
2018-09-25T10:21:15.126Z,19.98
2018-09-25T10:22:15.131Z,19.60
2018-09-25T10:23:15.096Z,19.43
2018-09-25T10:24:15.076Z,19.28
2018-09-25T10:25:15.153Z,19.06
2018-09-25T10:26:15.045Z,18.95
2018-09-25T10:27:15.113Z,18.92
2018-09-25T10:28:14.997Z,18.84
2018-09-25T10:29:14.977Z,18.73
2018-09-25T10:30:14.987Z,18.61
2018-09-25T10:31:14.937Z,18.68
2018-09-25T10:32:15.002Z,18.59
2018-09-25T10:33:14.897Z,18.58
2018-09-25T10:34:14.960Z,18.50
2018-09-25T10:35:14.871Z,18.29
2018-09-25T10:36:14.916Z,18.29
2018-09-25T10:37:14.818Z,18.17
2018-09-25T10:38:14.835Z,18.25
2018-09-25T10:39:14.841Z,18.73
2018-09-25T10:40:14.757Z,19.13
2018-09-25T10:41:14.757Z,19.21
2018-09-25T10:42:14.721Z,19.90
2018-09-25T10:43:14.766Z,20.62
2018-09-25T10:44:14.681Z,21.32
2018-09-25T10:45:14.678Z,22.25
2018-09-25T10:46:14.641Z,23.11
2018-09-25T10:47:14.688Z,23.60
2018-09-25T10:48:14.607Z,24.07
2018-09-25T10:49:14.656Z,24.59
2018-09-25T10:50:14.627Z,25.09
2018-09-25T10:51:14.615Z,25.49
2018-09-25T10:52:14.526Z,25.12
2018-09-25T10:53:14.544Z,24.91
2018-09-25T10:54:14.494Z,24.24
2018-09-25T10:55:14.474Z,23.72
2018-09-25T10:56:14.692Z,23.22
2018-09-25T10:57:14.430Z,22.50
2018-09-25T10:58:14.458Z,21.99
2018-09-25T10:59:14.412Z,21.60
2018-09-25T11:00:14.374Z,21.29
2018-09-25T11:01:14.350Z,20.89
2018-09-25T11:02:14.386Z,20.33
2018-09-25T11:03:14.425Z,19.87
2018-09-25T11:04:14.398Z,19.53
2018-09-25T11:05:14.313Z,19.36
2018-09-25T11:06:14.266Z,19.15
2018-09-25T11:07:14.321Z,18.99
2018-09-25T11:08:14.235Z,18.91
2018-09-25T11:09:14.232Z,18.79
2018-09-25T11:10:14.184Z,18.57
2018-09-25T11:11:14.171Z,18.61
2018-09-25T11:12:14.261Z,18.47
2018-09-25T11:13:14.119Z,18.42
2018-09-25T11:14:14.168Z,18.33
2018-09-25T11:15:14.083Z,18.24
2018-09-25T11:16:14.068Z,18.18
2018-09-25T11:17:14.048Z,18.19
2018-09-25T11:18:14.091Z,18.21
2018-09-25T11:19:14.012Z,18.50
2018-09-25T11:20:13.999Z,18.49
2018-09-25T11:21:14.008Z,18.40
2018-09-25T11:22:13.952Z,18.33
2018-09-25T11:23:14.028Z,18.28
2018-09-25T11:24:13.909Z,18.21
2018-09-25T11:25:13.941Z,18.10
2018-09-25T11:26:13.867Z,17.99
2018-09-25T11:27:15.907Z,17.99
2018-09-25T11:28:13.828Z,17.82
2018-09-25T11:29:13.857Z,17.71
2018-09-25T11:30:13.791Z,17.74
2018-09-25T11:31:13.878Z,17.55
2018-09-25T11:32:13.750Z,17.55
2018-09-25T11:33:13.792Z,17.40
2018-09-25T11:34:13.712Z,17.33
2018-09-25T11:35:13.728Z,17.29
2018-09-25T11:36:13.678Z,17.33
2018-09-25T11:37:13.652Z,17.41
2018-09-25T11:38:13.632Z,17.53
2018-09-25T11:39:13.636Z,17.66
2018-09-25T11:40:13.592Z,18.21
2018-09-25T11:41:13.697Z,18.90
2018-09-25T11:42:13.542Z,19.55
2018-09-25T11:43:13.551Z,20.00
2018-09-25T11:44:13.499Z,19.91
2018-09-25T11:45:13.578Z,20.10
2018-09-25T11:46:13.468Z,20.30
2018-09-25T11:47:13.530Z,20.30
2018-09-25T11:48:13.421Z,20.42
2018-09-25T11:49:13.515Z,20.66
2018-09-25T11:50:13.385Z,21.04
2018-09-25T11:51:13.402Z,21.46
2018-09-25T11:52:13.340Z,21.39
2018-09-25T11:53:13.319Z,21.13
2018-09-25T11:54:13.301Z,21.02
2018-09-25T11:55:14.355Z,20.72
2018-09-25T11:56:13.279Z,20.61
2018-09-25T11:57:13.338Z,20.50
2018-09-25T11:58:13.227Z,20.16
2018-09-25T11:59:13.256Z,19.94
2018-09-25T12:00:13.189Z,19.54
2018-09-25T12:01:13.268Z,19.38
2018-09-25T12:02:13.176Z,19.31
2018-09-25T12:03:13.178Z,19.13
2018-09-25T12:04:13.112Z,19.10
2018-09-25T12:05:13.198Z,18.87
2018-09-25T12:06:13.072Z,18.73
2018-09-25T12:07:13.114Z,18.70
2018-09-25T12:08:13.031Z,18.70
2018-09-25T12:09:13.017Z,18.64
2018-09-25T12:10:12.995Z,18.64
2018-09-25T12:11:13.028Z,18.79
2018-09-25T12:12:12.957Z,19.14
2018-09-25T12:13:12.952Z,19.38
2018-09-25T12:14:12.948Z,19.78
2018-09-25T12:15:12.898Z,20.28
2018-09-25T12:16:12.971Z,20.61
2018-09-25T12:17:12.849Z,20.84
2018-09-25T12:18:12.878Z,21.29
2018-09-25T12:19:12.812Z,21.69
2018-09-25T12:20:12.906Z,21.83
2018-09-25T12:21:12.777Z,22.12
2018-09-25T12:22:12.799Z,22.29
2018-09-25T12:23:12.791Z,22.44
2018-09-25T12:24:12.822Z,22.60
2018-09-25T12:25:12.702Z,22.78
2018-09-25T12:26:12.727Z,22.93
2018-09-25T12:27:12.661Z,23.17
2018-09-25T12:28:12.738Z,23.24
2018-09-25T12:29:12.621Z,23.40
2018-09-25T12:30:12.597Z,23.49
2018-09-25T12:31:12.587Z,23.65
2018-09-25T12:32:12.668Z,23.75
2018-09-25T12:33:12.548Z,23.70
2018-09-25T12:34:12.578Z,23.75
2018-09-25T12:35:12.512Z,23.77
2018-09-25T12:36:12.605Z,23.90
2018-09-25T12:37:12.476Z,23.76
2018-09-25T12:38:12.521Z,23.45
2018-09-25T12:39:12.449Z,23.29
2018-09-25T12:40:12.528Z,23.20
2018-09-25T12:41:12.410Z,23.27
2018-09-25T12:42:12.445Z,23.42
2018-09-25T12:43:12.370Z,23.05
2018-09-25T12:44:12.454Z,22.77
2018-09-25T12:45:12.341Z,22.62
2018-09-25T12:46:12.308Z,22.68
2018-09-25T12:47:12.370Z,22.82
2018-09-25T12:48:12.287Z,23.11
2018-09-25T12:49:12.286Z,23.17
2018-09-25T12:50:12.250Z,23.23
2018-09-25T12:51:12.227Z,23.02
2018-09-25T12:52:12.216Z,22.96
2018-09-25T12:53:12.315Z,22.52
2018-09-25T12:54:12.178Z,22.32
2018-09-25T12:55:12.220Z,22.37
2018-09-25T12:56:12.141Z,22.52
2018-09-25T12:57:12.139Z,22.46
2018-09-25T12:58:12.140Z,22.31
2018-09-25T12:59:12.097Z,22.23
2018-09-25T13:00:12.156Z,22.25
2018-09-25T13:01:12.066Z,22.09
2018-09-25T13:02:12.044Z,22.16
2018-09-25T13:03:12.027Z,22.09
2018-09-25T13:04:12.081Z,22.29
2018-09-25T13:05:11.985Z,22.22
2018-09-25T13:06:11.989Z,22.09
2018-09-25T13:07:11.995Z,22.27
2018-09-25T13:08:11.936Z,22.56
2018-09-25T13:09:12.010Z,22.74
2018-09-25T13:10:11.900Z,22.83
2018-09-25T13:11:11.927Z,22.92
2018-09-25T13:12:11.864Z,23.04
2018-09-25T13:13:11.938Z,22.97
2018-09-25T13:14:11.832Z,23.14
2018-09-25T13:15:11.849Z,23.26
2018-09-25T13:16:11.796Z,23.05